TimePDT,TemperatureF,Dew PointF,Humidity,Sea Level PressureIn,VisibilityMPH,Wind Direction,Wind SpeedMPH,Gust SpeedMPH,PrecipitationIn,Events,Conditions,WindDirDegrees,DateUTC
12:56 AM,52.0,37.9,59,29.84,10.0,South,5.8,-,N/A,,Clear,180,2013-05-07 07:56:00
1:56 AM,53.1,41.0,64,29.83,10.0,South,6.9,-,N/A,,Clear,190,2013-05-07 08:56:00
2:56 AM,50.0,41.0,71,29.83,10.0,Calm,Calm,-,N/A,,Clear,0,2013-05-07 09:56:00
3:56 AM,42.1,37.9,85,29.85,10.0,Calm,Calm,-,N/A,,Clear,0,2013-05-07 10:56:00
4:56 AM,45.0,39.9,82,29.85,10.0,South,4.6,-,N/A,,Clear,170,2013-05-07 11:56:00
5:56 AM,42.1,39.0,89,29.86,10.0,South,4.6,-,N/A,,Clear,190,2013-05-07 12:56:00
6:56 AM,48.9,41.0,74,29.87,10.0,SSE,5.8,-,N/A,,Clear,150,2013-05-07 13:56:00
7:56 AM,55.9,44.1,64,29.87,10.0,South,5.8,-,N/A,,Clear,170,2013-05-07 14:56:00
8:56 AM,61.0,42.1,50,29.87,10.0,Calm,Calm,-,N/A,,Clear,0,2013-05-07 15:56:00
9:56 AM,66.9,41.0,39,29.87,10.0,Calm,Calm,-,N/A,,Clear,0,2013-05-07 16:56:00
10:56 AM,71.1,37.0,29,29.85,10.0,NW,6.9,-,N/A,,Clear,320,2013-05-07 17:56:00
11:56 AM,73.0,37.9,28,29.85,10.0,Variable,4.6,-,N/A,,Clear,0,2013-05-07 18:56:00
12:56 PM,77.0,36.0,23,29.83,10.0,NW,8.1,-,N/A,,Clear,320,2013-05-07 19:56:00
1:56 PM,80.1,30.0,16,29.82,10.0,NNW,11.5,21.9,N/A,,Clear,340,2013-05-07 20:56:00
3:56 PM,81.0,27.0,14,29.81,10.0,NW,15.0,21.9,N/A,,Clear,320,2013-05-07 22:56:00
4:56 PM,79.0,30.9,17,29.80,10.0,NNW,13.8,21.9,N/A,,Clear,330,2013-05-07 23:56:00
5:56 PM,78.1,35.1,21,29.82,10.0,North,18.4,24.2,N/A,,Mostly Cloudy,350,2013-05-08 00:56:00
6:56 PM,75.9,35.1,23,29.82,10.0,NNW,15.0,-,N/A,,Mostly Cloudy,340,2013-05-08 01:56:00
7:56 PM,70.0,42.1,36,29.84,10.0,NW,12.7,20.7,N/A,,Scattered Clouds,310,2013-05-08 02:56:00
8:56 PM,64.9,44.1,47,29.88,10.0,WNW,13.8,-,N/A,,Partly Cloudy,300,2013-05-08 03:56:00
9:56 PM,64.0,44.1,48,29.91,10.0,WSW,8.1,-,N/A,,Scattered Clouds,250,2013-05-08 04:56:00
10:56 PM,61.0,42.1,50,29.92,10.0,Calm,Calm,-,N/A,,Partly Cloudy,0,2013-05-08 05:56:00
11:56 PM,54.0,41.0,62,29.95,10.0,SSE,3.5,-,N/A,,Clear,150,2013-05-08 06:56:00